Terminal Aerodrome Forecast
Issued by NWS

Home | Current Version | Previous Version | Text Only | Print | Product List | Glossary On
Versions: 1 2 3 4 5 6 7 8 9 10 11 12 13 14 15 16 17 18
000
FTUS46 KLOX 302341
TAFSBA
TAF
KSBA 302341Z 3100/3124 25008KT P6SM SCT080 SCT120
     FM310500 VRB03KT P6SM SKC
     FM311700 20006KT P6SM SCT080 SCT120
     FM312100 26007KT P6SM SCT080 SCT120=

USA.gov is the U.S. government's official web portal to all federal, state and local government web resources and services.